sensor_id;sensor_type;location;lat;lon;timestamp;temperature;humidity
21108;DHT22;10712;52.944;9.098;2022-09-11T00:01:08;14.70;89.00
21108;DHT22;10712;52.944;9.098;2022-09-11T00:03:37;14.70;89.00
21108;DHT22;10712;52.944;9.098;2022-09-11T00:06:04;14.60;89.10
21108;DHT22;10712;52.944;9.098;2022-09-11T00:08:33;14.60;89.10
21108;DHT22;10712;52.944;9.098;2022-09-11T00:11:11;14.60;89.20
21108;DHT22;10712;52.944;9.098;2022-09-11T00:13:42;14.60;89.30
21108;DHT22;10712;52.944;9.098;2022-09-11T00:16:22;14.60;89.30
21108;DHT22;10712;52.944;9.098;2022-09-11T00:18:52;14.60;89.30
21108;DHT22;10712;52.944;9.098;2022-09-11T00:21:20;14.60;89.40
21108;DHT22;10712;52.944;9.098;2022-09-11T00:23:46;14.60;89.50
21108;DHT22;10712;52.944;9.098;2022-09-11T00:26:19;14.60;89.50
21108;DHT22;10712;52.944;9.098;2022-09-11T00:28:46;14.60;89.70
21108;DHT22;10712;52.944;9.098;2022-09-11T00:31:18;14.50;89.80
21108;DHT22;10712;52.944;9.098;2022-09-11T00:33:46;14.50;89.90
21108;DHT22;10712;52.944;9.098;2022-09-11T00:36:15;14.50;90.10
21108;DHT22;10712;52.944;9.098;2022-09-11T00:38:43;14.60;90.40
21108;DHT22;10712;52.944;9.098;2022-09-11T00:41:14;14.60;90.70
21108;DHT22;10712;52.944;9.098;2022-09-11T00:46:36;14.70;91.20
21108;DHT22;10712;52.944;9.098;2022-09-11T00:51:52;14.80;92.10
21108;DHT22;10712;52.944;9.098;2022-09-11T00:54:25;14.80;92.20
21108;DHT22;10712;52.944;9.098;2022-09-11T00:56:56;14.90;92.30
21108;DHT22;10712;52.944;9.098;2022-09-11T00:59:28;14.90;92.30
21108;DHT22;10712;52.944;9.098;2022-09-11T01:01:56;14.90;92.20
21108;DHT22;10712;52.944;9.098;2022-09-11T01:04:23;14.90;92.30
21108;DHT22;10712;52.944;9.098;2022-09-11T01:06:54;15.00;92.40
21108;DHT22;10712;52.944;9.098;2022-09-11T01:09:29;15.00;92.70
21108;DHT22;10712;52.944;9.098;2022-09-11T01:26:32;15.10;92.90
21108;DHT22;10712;52.944;9.098;2022-09-11T01:29:49;15.20;92.90
21108;DHT22;10712;52.944;9.098;2022-09-11T01:32:22;15.20;92.90
21108;DHT22;10712;52.944;9.098;2022-09-11T01:35:20;15.20;92.90
21108;DHT22;10712;52.944;9.098;2022-09-11T01:38:01;15.20;92.90
21108;DHT22;10712;52.944;9.098;2022-09-11T01:40:39;15.20;92.90
21108;DHT22;10712;52.944;9.098;2022-09-11T01:43:15;15.20;93.00
21108;DHT22;10712;52.944;9.098;2022-09-11T01:45:49;15.20;93.00
21108;DHT22;10712;52.944;9.098;2022-09-11T01:48:19;15.20;93.10
21108;DHT22;10712;52.944;9.098;2022-09-11T01:50:54;15.20;93.10
21108;DHT22;10712;52.944;9.098;2022-09-11T01:53:24;15.20;93.20
21108;DHT22;10712;52.944;9.098;2022-09-11T01:56:02;15.20;93.20
21108;DHT22;10712;52.944;9.098;2022-09-11T01:58:35;15.30;93.20
21108;DHT22;10712;52.944;9.098;2022-09-11T02:01:09;15.20;93.20
21108;DHT22;10712;52.944;9.098;2022-09-11T02:03:50;15.30;93.20
21108;DHT22;10712;52.944;9.098;2022-09-11T02:06:24;15.30;93.20
21108;DHT22;10712;52.944;9.098;2022-09-11T02:09:08;15.30;93.20
21108;DHT22;10712;52.944;9.098;2022-09-11T02:11:39;15.30;93.20
21108;DHT22;10712;52.944;9.098;2022-09-11T02:14:16;15.30;93.00
21108;DHT22;10712;52.944;9.098;2022-09-11T02:19:35;15.30;92.90
21108;DHT22;10712;52.944;9.098;2022-09-11T02:22:01;15.30;92.80
21108;DHT22;10712;52.944;9.098;2022-09-11T02:24:27;15.30;92.70
21108;DHT22;10712;52.944;9.098;2022-09-11T02:27:05;15.30;92.80
21108;DHT22;10712;52.944;9.098;2022-09-11T02:29:34;15.30;92.60
21108;DHT22;10712;52.944;9.098;2022-09-11T02:32:02;15.20;92.40
21108;DHT22;10712;52.944;9.098;2022-09-11T02:34:32;15.20;92.40
21108;DHT22;10712;52.944;9.098;2022-09-11T02:43:10;15.10;92.30
21108;DHT22;10712;52.944;9.098;2022-09-11T02:45:53;15.00;92.30
21108;DHT22;10712;52.944;9.098;2022-09-11T02:48:55;15.00;92.20
21108;DHT22;10712;52.944;9.098;2022-09-11T02:52:18;14.90;92.10
21108;DHT22;10712;52.944;9.098;2022-09-11T02:55:25;14.90;92.00
21108;DHT22;10712;52.944;9.098;2022-09-11T03:00:40;14.80;91.90
21108;DHT22;10712;52.944;9.098;2022-09-11T03:03:07;14.80;91.60
21108;DHT22;10712;52.944;9.098;2022-09-11T03:05:34;14.70;91.60
21108;DHT22;10712;52.944;9.098;2022-09-11T03:08:01;14.70;91.40
21108;DHT22;10712;52.944;9.098;2022-09-11T03:10:28;14.60;91.60
21108;DHT22;10712;52.944;9.098;2022-09-11T03:12:56;14.60;91.60
21108;DHT22;10712;52.944;9.098;2022-09-11T03:15:25;14.60;91.60
21108;DHT22;10712;52.944;9.098;2022-09-11T03:17:51;14.60;91.70
21108;DHT22;10712;52.944;9.098;2022-09-11T03:20:17;14.70;91.80
21108;DHT22;10712;52.944;9.098;2022-09-11T03:22:45;14.70;91.90
21108;DHT22;10712;52.944;9.098;2022-09-11T03:25:11;14.70;92.00
21108;DHT22;10712;52.944;9.098;2022-09-11T03:27:38;14.70;92.00
21108;DHT22;10712;52.944;9.098;2022-09-11T03:30:07;14.80;91.90
21108;DHT22;10712;52.944;9.098;2022-09-11T03:32:33;14.80;92.00
21108;DHT22;10712;52.944;9.098;2022-09-11T03:34:59;14.90;92.10
21108;DHT22;10712;52.944;9.098;2022-09-11T03:37:26;14.90;92.00
21108;DHT22;10712;52.944;9.098;2022-09-11T03:39:54;14.90;92.10
21108;DHT22;10712;52.944;9.098;2022-09-11T03:42:20;14.90;92.30
21108;DHT22;10712;52.944;9.098;2022-09-11T03:44:46;14.90;92.40
21108;DHT22;10712;52.944;9.098;2022-09-11T03:47:13;14.90;92.50
21108;DHT22;10712;52.944;9.098;2022-09-11T03:49:39;15.00;92.60
21108;DHT22;10712;52.944;9.098;2022-09-11T03:52:05;15.00;92.80
21108;DHT22;10712;52.944;9.098;2022-09-11T03:54:31;15.00;93.00
21108;DHT22;10712;52.944;9.098;2022-09-11T03:56:57;15.00;93.00
21108;DHT22;10712;52.944;9.098;2022-09-11T03:59:25;15.10;93.10
21108;DHT22;10712;52.944;9.098;2022-09-11T04:01:50;15.10;93.20
21108;DHT22;10712;52.944;9.098;2022-09-11T04:04:17;15.10;93.20
21108;DHT22;10712;52.944;9.098;2022-09-11T04:06:43;15.10;93.20
21108;DHT22;10712;52.944;9.098;2022-09-11T04:09:09;15.10;93.30
21108;DHT22;10712;52.944;9.098;2022-09-11T04:11:35;15.10;93.30
21108;DHT22;10712;52.944;9.098;2022-09-11T04:14:11;15.10;93.30
21108;DHT22;10712;52.944;9.098;2022-09-11T04:16:38;15.20;93.20
21108;DHT22;10712;52.944;9.098;2022-09-11T04:19:04;15.10;93.20
21108;DHT22;10712;52.944;9.098;2022-09-11T04:21:31;15.20;93.20
21108;DHT22;10712;52.944;9.098;2022-09-11T04:23:59;15.20;93.30
21108;DHT22;10712;52.944;9.098;2022-09-11T04:26:30;15.20;93.40
21108;DHT22;10712;52.944;9.098;2022-09-11T04:29:29;15.20;93.40
21108;DHT22;10712;52.944;9.098;2022-09-11T04:31:57;15.20;93.40
21108;DHT22;10712;52.944;9.098;2022-09-11T04:34:27;15.20;93.40
21108;DHT22;10712;52.944;9.098;2022-09-11T04:36:53;15.20;93.40
21108;DHT22;10712;52.944;9.098;2022-09-11T04:39:21;15.20;93.50
21108;DHT22;10712;52.944;9.098;2022-09-11T04:41:47;15.20;93.50
21108;DHT22;10712;52.944;9.098;2022-09-11T04:44:15;15.20;93.50
21108;DHT22;10712;52.944;9.098;2022-09-11T04:46:42;15.20;93.60
21108;DHT22;10712;52.944;9.098;2022-09-11T04:49:09;15.20;93.60
21108;DHT22;10712;52.944;9.098;2022-09-11T04:51:37;15.20;93.60
21108;DHT22;10712;52.944;9.098;2022-09-11T04:54:05;15.20;93.70
21108;DHT22;10712;52.944;9.098;2022-09-11T04:56:36;15.20;93.80
21108;DHT22;10712;52.944;9.098;2022-09-11T04:59:06;15.30;93.90
21108;DHT22;10712;52.944;9.098;2022-09-11T05:01:38;15.20;94.00
21108;DHT22;10712;52.944;9.098;2022-09-11T05:04:05;15.20;94.00
21108;DHT22;10712;52.944;9.098;2022-09-11T05:06:31;15.30;94.00
21108;DHT22;10712;52.944;9.098;2022-09-11T05:09:05;15.20;94.00
21108;DHT22;10712;52.944;9.098;2022-09-11T05:11:35;15.20;94.10
21108;DHT22;10712;52.944;9.098;2022-09-11T05:14:04;15.20;94.10
21108;DHT22;10712;52.944;9.098;2022-09-11T05:16:34;15.20;94.10
21108;DHT22;10712;52.944;9.098;2022-09-11T05:19:02;15.20;94.00
21108;DHT22;10712;52.944;9.098;2022-09-11T05:21:29;15.20;94.10
21108;DHT22;10712;52.944;9.098;2022-09-11T05:23:58;15.10;94.00
21108;DHT22;10712;52.944;9.098;2022-09-11T05:26:30;15.10;93.80
21108;DHT22;10712;52.944;9.098;2022-09-11T05:29:03;15.00;93.90
21108;DHT22;10712;52.944;9.098;2022-09-11T05:31:40;15.00;94.10
21108;DHT22;10712;52.944;9.098;2022-09-11T05:34:06;14.90;94.00
21108;DHT22;10712;52.944;9.098;2022-09-11T05:36:33;14.90;94.00
21108;DHT22;10712;52.944;9.098;2022-09-11T05:39:01;14.90;94.10
21108;DHT22;10712;52.944;9.098;2022-09-11T05:41:28;14.80;94.10
21108;DHT22;10712;52.944;9.098;2022-09-11T05:43:54;14.80;94.30
21108;DHT22;10712;52.944;9.098;2022-09-11T05:46:20;14.80;94.30
21108;DHT22;10712;52.944;9.098;2022-09-11T05:48:50;14.90;94.30
21108;DHT22;10712;52.944;9.098;2022-09-11T05:51:18;14.90;94.30
21108;DHT22;10712;52.944;9.098;2022-09-11T05:53:50;14.90;94.30
21108;DHT22;10712;52.944;9.098;2022-09-11T05:56:20;14.90;94.30
21108;DHT22;10712;52.944;9.098;2022-09-11T05:58:48;14.90;94.30
21108;DHT22;10712;52.944;9.098;2022-09-11T06:01:21;14.90;94.30
21108;DHT22;10712;52.944;9.098;2022-09-11T06:03:57;14.90;94.30
21108;DHT22;10712;52.944;9.098;2022-09-11T06:06:24;14.90;94.30
21108;DHT22;10712;52.944;9.098;2022-09-11T06:08:51;14.90;94.30
21108;DHT22;10712;52.944;9.098;2022-09-11T06:11:20;14.90;94.30
21108;DHT22;10712;52.944;9.098;2022-09-11T06:13:47;14.90;94.30
21108;DHT22;10712;52.944;9.098;2022-09-11T06:16:21;14.90;94.30
21108;DHT22;10712;52.944;9.098;2022-09-11T06:18:50;14.90;94.30
21108;DHT22;10712;52.944;9.098;2022-09-11T06:21:21;14.90;94.30
21108;DHT22;10712;52.944;9.098;2022-09-11T06:23:57;14.90;94.30
21108;DHT22;10712;52.944;9.098;2022-09-11T06:26:24;14.90;94.30
21108;DHT22;10712;52.944;9.098;2022-09-11T06:28:53;14.90;94.30
21108;DHT22;10712;52.944;9.098;2022-09-11T06:31:23;14.90;94.30
21108;DHT22;10712;52.944;9.098;2022-09-11T06:33:52;14.90;94.30
21108;DHT22;10712;52.944;9.098;2022-09-11T06:36:23;14.90;94.30
21108;DHT22;10712;52.944;9.098;2022-09-11T06:38:56;14.90;94.30
21108;DHT22;10712;52.944;9.098;2022-09-11T06:41:25;14.90;94.30
21108;DHT22;10712;52.944;9.098;2022-09-11T06:43:58;14.80;94.30
21108;DHT22;10712;52.944;9.098;2022-09-11T06:46:25;14.90;94.30
21108;DHT22;10712;52.944;9.098;2022-09-11T06:48:55;14.90;94.30
21108;DHT22;10712;52.944;9.098;2022-09-11T06:51:24;14.90;94.30
21108;DHT22;10712;52.944;9.098;2022-09-11T06:53:55;14.90;94.30
21108;DHT22;10712;52.944;9.098;2022-09-11T06:56:25;14.90;94.30
21108;DHT22;10712;52.944;9.098;2022-09-11T06:58:51;14.90;94.30
21108;DHT22;10712;52.944;9.098;2022-09-11T07:01:21;14.90;94.30
21108;DHT22;10712;52.944;9.098;2022-09-11T07:03:54;14.90;94.30
21108;DHT22;10712;52.944;9.098;2022-09-11T07:06:23;14.90;94.30
21108;DHT22;10712;52.944;9.098;2022-09-11T07:08:55;14.90;94.30
21108;DHT22;10712;52.944;9.098;2022-09-11T07:11:34;14.90;94.30
21108;DHT22;10712;52.944;9.098;2022-09-11T07:14:01;14.90;94.30
21108;DHT22;10712;52.944;9.098;2022-09-11T07:16:33;14.90;94.30
21108;DHT22;10712;52.944;9.098;2022-09-11T07:19:01;14.90;94.30
21108;DHT22;10712;52.944;9.098;2022-09-11T07:21:29;14.90;94.30
21108;DHT22;10712;52.944;9.098;2022-09-11T07:23:59;15.00;94.30
21108;DHT22;10712;52.944;9.098;2022-09-11T07:26:30;15.00;94.30
21108;DHT22;10712;52.944;9.098;2022-09-11T07:29:02;15.10;94.30
21108;DHT22;10712;52.944;9.098;2022-09-11T07:31:30;15.10;94.30
21108;DHT22;10712;52.944;9.098;2022-09-11T07:34:00;15.10;94.30
21108;DHT22;10712;52.944;9.098;2022-09-11T07:36:32;15.10;94.30
21108;DHT22;10712;52.944;9.098;2022-09-11T07:39:01;15.10;94.30
21108;DHT22;10712;52.944;9.098;2022-09-11T07:41:34;15.20;94.30
21108;DHT22;10712;52.944;9.098;2022-09-11T07:44:04;15.10;94.00
21108;DHT22;10712;52.944;9.098;2022-09-11T07:46:32;15.10;94.10
21108;DHT22;10712;52.944;9.098;2022-09-11T07:49:03;15.10;94.20
21108;DHT22;10712;52.944;9.098;2022-09-11T07:51:30;15.10;94.00
21108;DHT22;10712;52.944;9.098;2022-09-11T07:54:00;15.10;94.00
21108;DHT22;10712;52.944;9.098;2022-09-11T07:56:29;15.10;94.20
21108;DHT22;10712;52.944;9.098;2022-09-11T07:58:58;15.10;94.30
21108;DHT22;10712;52.944;9.098;2022-09-11T08:01:29;15.20;94.30
21108;DHT22;10712;52.944;9.098;2022-09-11T08:03:57;15.20;94.30
21108;DHT22;10712;52.944;9.098;2022-09-11T08:06:30;15.30;94.30
21108;DHT22;10712;52.944;9.098;2022-09-11T08:09:04;15.30;94.30
21108;DHT22;10712;52.944;9.098;2022-09-11T08:11:39;15.30;94.30
21108;DHT22;10712;52.944;9.098;2022-09-11T08:14:08;15.40;94.30
21108;DHT22;10712;52.944;9.098;2022-09-11T08:16:35;15.40;94.30
21108;DHT22;10712;52.944;9.098;2022-09-11T08:19:03;15.40;94.30
21108;DHT22;10712;52.944;9.098;2022-09-11T08:21:30;15.50;94.30
21108;DHT22;10712;52.944;9.098;2022-09-11T08:23:56;15.60;94.30
21108;DHT22;10712;52.944;9.098;2022-09-11T08:26:28;15.60;94.30
21108;DHT22;10712;52.944;9.098;2022-09-11T08:28:57;15.60;94.30
21108;DHT22;10712;52.944;9.098;2022-09-11T08:31:26;15.60;94.30
21108;DHT22;10712;52.944;9.098;2022-09-11T08:33:55;15.70;94.20
21108;DHT22;10712;52.944;9.098;2022-09-11T08:36:21;15.70;94.20
21108;DHT22;10712;52.944;9.098;2022-09-11T08:38:49;15.70;94.20
21108;DHT22;10712;52.944;9.098;2022-09-11T08:47:01;15.90;93.70
21108;DHT22;10712;52.944;9.098;2022-09-11T08:49:42;15.90;93.80
21108;DHT22;10712;52.944;9.098;2022-09-11T08:52:14;15.90;93.60
21108;DHT22;10712;52.944;9.098;2022-09-11T08:54:44;16.00;93.70
21108;DHT22;10712;52.944;9.098;2022-09-11T08:57:32;16.00;93.50
21108;DHT22;10712;52.944;9.098;2022-09-11T09:00:23;16.10;93.40
21108;DHT22;10712;52.944;9.098;2022-09-11T09:06:36;16.20;92.40
21108;DHT22;10712;52.944;9.098;2022-09-11T09:20:48;16.50;90.00
21108;DHT22;10712;52.944;9.098;2022-09-11T09:23:34;16.60;90.00
21108;DHT22;10712;52.944;9.098;2022-09-11T09:26:12;16.60;89.90
21108;DHT22;10712;52.944;9.098;2022-09-11T09:28:45;16.70;90.00
21108;DHT22;10712;52.944;9.098;2022-09-11T09:31:20;16.80;89.80
21108;DHT22;10712;52.944;9.098;2022-09-11T09:34:27;16.80;89.30
21108;DHT22;10712;52.944;9.098;2022-09-11T09:39:40;16.90;88.10
21108;DHT22;10712;52.944;9.098;2022-09-11T09:45:37;16.80;87.20
21108;DHT22;10712;52.944;9.098;2022-09-11T09:48:13;16.80;87.20
21108;DHT22;10712;52.944;9.098;2022-09-11T09:50:40;16.70;87.70
21108;DHT22;10712;52.944;9.098;2022-09-11T09:55:41;16.70;87.60
21108;DHT22;10712;52.944;9.098;2022-09-11T09:58:08;16.70;88.10
21108;DHT22;10712;52.944;9.098;2022-09-11T10:00:36;16.80;88.10
21108;DHT22;10712;52.944;9.098;2022-09-11T10:03:18;16.90;88.30
21108;DHT22;10712;52.944;9.098;2022-09-11T10:05:50;17.00;88.30
21108;DHT22;10712;52.944;9.098;2022-09-11T10:08:34;17.10;87.20
21108;DHT22;10712;52.944;9.098;2022-09-11T10:13:53;17.10;87.30
21108;DHT22;10712;52.944;9.098;2022-09-11T10:16:24;17.10;86.30
21108;DHT22;10712;52.944;9.098;2022-09-11T10:18:53;17.10;86.50
21108;DHT22;10712;52.944;9.098;2022-09-11T10:21:28;17.10;86.30
21108;DHT22;10712;52.944;9.098;2022-09-11T10:24:01;17.10;86.70
21108;DHT22;10712;52.944;9.098;2022-09-11T10:26:48;17.10;86.70
21108;DHT22;10712;52.944;9.098;2022-09-11T10:29:18;17.20;86.30
21108;DHT22;10712;52.944;9.098;2022-09-11T10:31:49;17.30;84.40
21108;DHT22;10712;52.944;9.098;2022-09-11T10:34:22;17.30;84.70
21108;DHT22;10712;52.944;9.098;2022-09-11T10:36:54;17.40;85.10
21108;DHT22;10712;52.944;9.098;2022-09-11T10:39:26;17.50;85.10
21108;DHT22;10712;52.944;9.098;2022-09-11T10:41:56;17.60;83.10
21108;DHT22;10712;52.944;9.098;2022-09-11T10:44:28;17.70;83.50
21108;DHT22;10712;52.944;9.098;2022-09-11T10:49:40;17.80;83.20
21108;DHT22;10712;52.944;9.098;2022-09-11T11:02:47;18.10;80.30
21108;DHT22;10712;52.944;9.098;2022-09-11T11:19:48;18.70;78.90
21108;DHT22;10712;52.944;9.098;2022-09-11T11:26:05;18.60;78.60
21108;DHT22;10712;52.944;9.098;2022-09-11T11:35:26;18.20;79.70
21108;DHT22;10712;52.944;9.098;2022-09-11T11:37:58;18.20;80.30
21108;DHT22;10712;52.944;9.098;2022-09-11T11:40:40;18.30;80.00
21108;DHT22;10712;52.944;9.098;2022-09-11T11:43:16;18.40;79.10
21108;DHT22;10712;52.944;9.098;2022-09-11T11:46:00;18.60;78.50
21108;DHT22;10712;52.944;9.098;2022-09-11T11:48:42;18.70;78.10
21108;DHT22;10712;52.944;9.098;2022-09-11T11:51:18;18.80;77.60
21108;DHT22;10712;52.944;9.098;2022-09-11T11:54:18;19.00;77.70
21108;DHT22;10712;52.944;9.098;2022-09-11T11:56:52;19.10;76.90
21108;DHT22;10712;52.944;9.098;2022-09-11T12:04:56;19.30;74.60
21108;DHT22;10712;52.944;9.098;2022-09-11T12:07:41;19.30;75.20
21108;DHT22;10712;52.944;9.098;2022-09-11T12:10:21;19.30;74.90
21108;DHT22;10712;52.944;9.098;2022-09-11T12:12:54;19.40;75.20
21108;DHT22;10712;52.944;9.098;2022-09-11T12:15:26;19.40;75.00
21108;DHT22;10712;52.944;9.098;2022-09-11T12:20:44;19.50;73.00
21108;DHT22;10712;52.944;9.098;2022-09-11T12:28:46;19.50;74.40
21108;DHT22;10712;52.944;9.098;2022-09-11T12:31:16;19.50;74.40
21108;DHT22;10712;52.944;9.098;2022-09-11T12:36:09;19.50;73.90
21108;DHT22;10712;52.944;9.098;2022-09-11T12:47:19;19.20;74.40
21108;DHT22;10712;52.944;9.098;2022-09-11T12:50:18;19.30;74.70
21108;DHT22;10712;52.944;9.098;2022-09-11T12:52:52;19.50;73.80
21108;DHT22;10712;52.944;9.098;2022-09-11T12:55:40;19.50;73.80
21108;DHT22;10712;52.944;9.098;2022-09-11T13:00:46;19.50;73.10
21108;DHT22;10712;52.944;9.098;2022-09-11T13:03:20;19.60;72.90
21108;DHT22;10712;52.944;9.098;2022-09-11T13:06:00;19.70;71.60
21108;DHT22;10712;52.944;9.098;2022-09-11T13:08:37;19.90;70.40
21108;DHT22;10712;52.944;9.098;2022-09-11T13:11:33;19.90;69.10
21108;DHT22;10712;52.944;9.098;2022-09-11T13:14:02;19.90;69.70
21108;DHT22;10712;52.944;9.098;2022-09-11T13:16:31;19.90;69.80
21108;DHT22;10712;52.944;9.098;2022-09-11T13:19:10;19.90;70.20
21108;DHT22;10712;52.944;9.098;2022-09-11T13:21:39;19.90;69.10
21108;DHT22;10712;52.944;9.098;2022-09-11T13:26:52;19.80;68.30
21108;DHT22;10712;52.944;9.098;2022-09-11T13:29:23;19.80;68.80
21108;DHT22;10712;52.944;9.098;2022-09-11T13:31:52;19.80;69.40
21108;DHT22;10712;52.944;9.098;2022-09-11T13:34:20;19.80;69.50
21108;DHT22;10712;52.944;9.098;2022-09-11T13:36:49;19.80;68.70
21108;DHT22;10712;52.944;9.098;2022-09-11T13:39:17;19.70;68.60
21108;DHT22;10712;52.944;9.098;2022-09-11T13:41:46;19.80;68.80
21108;DHT22;10712;52.944;9.098;2022-09-11T13:47:38;19.90;68.20
21108;DHT22;10712;52.944;9.098;2022-09-11T13:50:10;20.00;68.00
21108;DHT22;10712;52.944;9.098;2022-09-11T13:52:39;19.90;68.20
21108;DHT22;10712;52.944;9.098;2022-09-11T13:55:18;19.90;67.70
21108;DHT22;10712;52.944;9.098;2022-09-11T13:57:59;19.90;68.50
21108;DHT22;10712;52.944;9.098;2022-09-11T14:00:47;20.00;69.10
21108;DHT22;10712;52.944;9.098;2022-09-11T14:03:24;20.10;68.70
21108;DHT22;10712;52.944;9.098;2022-09-11T14:05:58;20.20;68.70
21108;DHT22;10712;52.944;9.098;2022-09-11T14:08:34;20.30;67.10
21108;DHT22;10712;52.944;9.098;2022-09-11T14:11:21;20.30;68.00
21108;DHT22;10712;52.944;9.098;2022-09-11T14:16:43;20.40;68.50
21108;DHT22;10712;52.944;9.098;2022-09-11T14:19:21;20.40;68.50
21108;DHT22;10712;52.944;9.098;2022-09-11T14:21:51;20.50;68.50
21108;DHT22;10712;52.944;9.098;2022-09-11T14:27:01;20.70;66.50
21108;DHT22;10712;52.944;9.098;2022-09-11T14:29:30;20.70;65.40
21108;DHT22;10712;52.944;9.098;2022-09-11T14:32:32;20.70;65.50
21108;DHT22;10712;52.944;9.098;2022-09-11T14:35:02;20.70;66.00
21108;DHT22;10712;52.944;9.098;2022-09-11T14:37:32;20.70;65.70
21108;DHT22;10712;52.944;9.098;2022-09-11T14:40:09;20.70;65.80
21108;DHT22;10712;52.944;9.098;2022-09-11T14:42:40;20.80;66.20
21108;DHT22;10712;52.944;9.098;2022-09-11T14:45:29;20.70;65.60
21108;DHT22;10712;52.944;9.098;2022-09-11T14:47:55;20.70;65.00
21108;DHT22;10712;52.944;9.098;2022-09-11T14:50:21;20.70;64.90
21108;DHT22;10712;52.944;9.098;2022-09-11T14:52:49;20.70;64.40
21108;DHT22;10712;52.944;9.098;2022-09-11T14:55:16;20.70;64.50
21108;DHT22;10712;52.944;9.098;2022-09-11T14:57:44;20.60;65.00
21108;DHT22;10712;52.944;9.098;2022-09-11T15:00:16;20.60;64.30
21108;DHT22;10712;52.944;9.098;2022-09-11T15:02:42;20.50;64.00
21108;DHT22;10712;52.944;9.098;2022-09-11T15:05:13;20.40;64.20
21108;DHT22;10712;52.944;9.098;2022-09-11T15:07:42;20.40;64.70
21108;DHT22;10712;52.944;9.098;2022-09-11T15:10:10;20.50;64.80
21108;DHT22;10712;52.944;9.098;2022-09-11T15:12:37;20.40;65.50
21108;DHT22;10712;52.944;9.098;2022-09-11T15:15:03;20.50;65.30
21108;DHT22;10712;52.944;9.098;2022-09-11T15:17:29;20.50;65.40
21108;DHT22;10712;52.944;9.098;2022-09-11T15:19:56;20.40;65.50
21108;DHT22;10712;52.944;9.098;2022-09-11T15:22:24;20.50;65.10
21108;DHT22;10712;52.944;9.098;2022-09-11T15:24:50;20.50;64.90
21108;DHT22;10712;52.944;9.098;2022-09-11T15:27:16;20.50;65.20
21108;DHT22;10712;52.944;9.098;2022-09-11T15:29:43;20.50;65.60
21108;DHT22;10712;52.944;9.098;2022-09-11T15:32:10;20.50;65.50
21108;DHT22;10712;52.944;9.098;2022-09-11T15:34:37;20.50;65.30
21108;DHT22;10712;52.944;9.098;2022-09-11T15:37:04;20.40;64.70
21108;DHT22;10712;52.944;9.098;2022-09-11T15:39:30;20.40;64.90
21108;DHT22;10712;52.944;9.098;2022-09-11T15:41:56;20.40;65.00
21108;DHT22;10712;52.944;9.098;2022-09-11T15:44:24;20.40;64.70
21108;DHT22;10712;52.944;9.098;2022-09-11T15:46:52;20.30;64.50
21108;DHT22;10712;52.944;9.098;2022-09-11T15:49:20;20.30;63.80
21108;DHT22;10712;52.944;9.098;2022-09-11T15:51:51;20.30;63.30
21108;DHT22;10712;52.944;9.098;2022-09-11T15:54:18;20.30;63.30
21108;DHT22;10712;52.944;9.098;2022-09-11T15:56:45;20.30;63.40
21108;DHT22;10712;52.944;9.098;2022-09-11T15:59:12;20.20;63.40
21108;DHT22;10712;52.944;9.098;2022-09-11T16:01:40;20.20;63.70
21108;DHT22;10712;52.944;9.098;2022-09-11T16:04:12;20.20;63.80
21108;DHT22;10712;52.944;9.098;2022-09-11T16:06:43;20.10;64.10
21108;DHT22;10712;52.944;9.098;2022-09-11T16:09:12;20.10;63.60
21108;DHT22;10712;52.944;9.098;2022-09-11T16:11:40;20.10;62.80
21108;DHT22;10712;52.944;9.098;2022-09-11T16:14:07;20.00;62.90
21108;DHT22;10712;52.944;9.098;2022-09-11T16:16:40;20.00;62.70
21108;DHT22;10712;52.944;9.098;2022-09-11T16:19:06;20.00;62.90
21108;DHT22;10712;52.944;9.098;2022-09-11T16:21:32;19.90;63.60
21108;DHT22;10712;52.944;9.098;2022-09-11T16:23:58;19.90;63.60
21108;DHT22;10712;52.944;9.098;2022-09-11T16:26:24;19.90;63.50
21108;DHT22;10712;52.944;9.098;2022-09-11T16:28:52;19.80;62.40
21108;DHT22;10712;52.944;9.098;2022-09-11T16:31:18;19.80;63.10
21108;DHT22;10712;52.944;9.098;2022-09-11T16:33:44;19.70;63.00
21108;DHT22;10712;52.944;9.098;2022-09-11T16:36:16;19.70;63.30
21108;DHT22;10712;52.944;9.098;2022-09-11T16:38:47;19.70;64.10
21108;DHT22;10712;52.944;9.098;2022-09-11T16:41:18;19.60;63.70
21108;DHT22;10712;52.944;9.098;2022-09-11T16:43:51;19.60;63.90
21108;DHT22;10712;52.944;9.098;2022-09-11T16:46:22;19.50;64.30
21108;DHT22;10712;52.944;9.098;2022-09-11T16:48:50;19.50;64.80
21108;DHT22;10712;52.944;9.098;2022-09-11T16:51:19;19.40;65.50
21108;DHT22;10712;52.944;9.098;2022-09-11T16:53:45;19.40;66.00
21108;DHT22;10712;52.944;9.098;2022-09-11T16:56:14;19.30;66.30
21108;DHT22;10712;52.944;9.098;2022-09-11T16:58:42;19.30;66.60
21108;DHT22;10712;52.944;9.098;2022-09-11T17:01:10;19.20;66.90
21108;DHT22;10712;52.944;9.098;2022-09-11T17:03:42;19.20;67.50
21108;DHT22;10712;52.944;9.098;2022-09-11T17:06:11;19.10;67.40
21108;DHT22;10712;52.944;9.098;2022-09-11T17:08:37;19.00;67.50
21108;DHT22;10712;52.944;9.098;2022-09-11T17:11:05;19.00;67.30
21108;DHT22;10712;52.944;9.098;2022-09-11T17:13:35;18.90;67.30
21108;DHT22;10712;52.944;9.098;2022-09-11T17:16:06;18.90;67.80
21108;DHT22;10712;52.944;9.098;2022-09-11T17:18:34;18.80;68.20
21108;DHT22;10712;52.944;9.098;2022-09-11T17:21:03;18.80;68.20
21108;DHT22;10712;52.944;9.098;2022-09-11T17:23:36;18.70;68.20
21108;DHT22;10712;52.944;9.098;2022-09-11T17:26:06;18.70;68.50
21108;DHT22;10712;52.944;9.098;2022-09-11T17:28:34;18.60;68.90
21108;DHT22;10712;52.944;9.098;2022-09-11T17:31:05;18.60;69.10
21108;DHT22;10712;52.944;9.098;2022-09-11T17:33:34;18.50;69.60
21108;DHT22;10712;52.944;9.098;2022-09-11T17:36:01;18.50;69.80
21108;DHT22;10712;52.944;9.098;2022-09-11T17:38:27;18.40;70.10
21108;DHT22;10712;52.944;9.098;2022-09-11T17:40:57;18.40;70.50
21108;DHT22;10712;52.944;9.098;2022-09-11T17:43:25;18.30;71.10
21108;DHT22;10712;52.944;9.098;2022-09-11T17:45:51;18.30;71.20
21108;DHT22;10712;52.944;9.098;2022-09-11T17:48:23;18.20;71.60
21108;DHT22;10712;52.944;9.098;2022-09-11T17:50:49;18.20;71.90
21108;DHT22;10712;52.944;9.098;2022-09-11T17:53:23;18.10;71.80
21108;DHT22;10712;52.944;9.098;2022-09-11T17:55:49;18.10;72.20
21108;DHT22;10712;52.944;9.098;2022-09-11T17:58:15;18.00;72.30
21108;DHT22;10712;52.944;9.098;2022-09-11T18:00:40;17.90;72.40
21108;DHT22;10712;52.944;9.098;2022-09-11T18:03:06;17.80;72.50
21108;DHT22;10712;52.944;9.098;2022-09-11T18:05:32;17.70;72.60
21108;DHT22;10712;52.944;9.098;2022-09-11T18:07:59;17.60;73.00
21108;DHT22;10712;52.944;9.098;2022-09-11T18:10:26;17.50;73.30
21108;DHT22;10712;52.944;9.098;2022-09-11T18:12:52;17.50;73.60
21108;DHT22;10712;52.944;9.098;2022-09-11T18:15:18;17.40;73.90
21108;DHT22;10712;52.944;9.098;2022-09-11T18:17:44;17.40;74.10